MUC | München Airways

 METAR UND TAF INFORMATION

METAR FOR LDPL
ADDS - METARS form results

(0922 UTC 21 May 2019)
Data provider http://aviationweather.gov/metar/data/
 
METAR text: LDPL 210900Z 22005KT 180V270 9999 -RA FEW010 SCT033 BKN055 14/12 Q1010 NOSIG
Conditions at: LDPL (PULA , HR) observed 0900 UTC 21 May 2019
Temperature: 14.0°C (57°F)
Dewpoint: 12.0°C (54°F) [RH = 88%]
Pressure (altimeter): 29.82 inches Hg (1010.0 mb)
Winds: from the SW (220 degrees) at 6 MPH (5 knots; 2.6 m/s)
Visibility: 6 or more miles (10+ km)
Ceiling: 5500 feet AGL
Clouds: few clouds at 1000 feet AGL
scattered clouds at 3300 feet AGL
broken clouds at 5500 feet AGL
Weather: -RA  (light rain)

METAR text: LDPL 210830Z 20005KT 150V230 9999 -RA FEW012 SCT033 BKN057 15/13 Q1010 NOSIG
Conditions at: LDPL (PULA , HR) observed 0830 UTC 21 May 2019
Temperature: 15.0°C (59°F)
Dewpoint: 13.0°C (55°F) [RH = 88%]
Pressure (altimeter): 29.82 inches Hg (1010.0 mb)
Winds: from the SSW (200 degrees) at 6 MPH (5 knots; 2.6 m/s)
Visibility: 6 or more miles (10+ km)
Ceiling: 5700 feet AGL
Clouds: few clouds at 1200 feet AGL
scattered clouds at 3300 feet AGL
broken clouds at 5700 feet AGL
Weather: -RA  (light rain)

Forecast for: LDPL (PULA , HR)
Text: TAF LDPL 210525Z 2106/2206 18006KT 9999 BKN030 TX18/2115Z TN12/2204Z
Forecast period: 0600 UTC 21 May 2019 to 0600 UTC 22 May 2019
Forecast type: FROM: standard forecast or significant change
Winds: from the S (180 degrees) at 7 MPH (6 knots; 3.1 m/s)
Visibility: 6 or more miles 10+ km)
Ceiling: 3000 feet AGL
Clouds: broken clouds at 3000 feet AGL
Weather: no significant weather forecast for this period
Text: PROB40
Forecast period: 0600 to 1200 UTC 21 May 2019
Forecast type: TEMPORARY: The following changes expected for less than half the time period
Visibility: missing
Ceiling: 3000 feet AGL
Clouds: scattered clouds at 2500 feet AGL
broken clouds at 3000 feet AGL
Weather: SHRA  (rain showers)
Text: TEMPO 2106/2112 SHRA SCT025TCU BKN030
Forecast period: 2000 UTC 21 May 2019 to 0600 UTC 22 May 2019
Forecast type: TEMPORARY: The following changes expected for less than half the time period
Visibility: missing
Ceiling: 1000 feet AGL
Clouds: broken clouds at 1000 feet AGL
few clouds at 2000 feet AGL
broken clouds at 2500 feet AGL
Weather: SHRA  (rain showers)

 FLUGHAFENKARTE

 RUNWAY INFORMATION
Runway 09 Runway length 9678 ft Runway width 148 ft
Runway elevation 169 ft Runway displaced threshold 0 ft Runway heading 88
Runway 27 Runway length 9678 ft Runway width 148 ft
Runway elevation 274 ft Runway displaced threshold 0 ft Runway heading 268

 AIRPORT FREQUENCIES
Type APP Name APP Frequency 118.4 MHZ
Type TWR Name TWR Frequency 120 MHZ

 AIRPORT NEAR NAVIGATION AIDS
Type NDB Name Cres Frequency 433 KHZ
Type NDB Name Kavran Frequency 265 KHZ
Type NDB Name Pula Frequency 352 KHZ
Type VOR-DME Name Pula Frequency 111250 KHZ